createdAt,value
2022-07-27T00:04:43.464Z,11.83
2022-07-27T00:07:53.411Z,12.90
2022-07-27T00:12:12.774Z,12.00
2022-07-27T00:15:20.478Z,13.07
2022-07-27T00:19:38.805Z,11.70
2022-07-27T00:22:45.127Z,12.40
2022-07-27T00:25:53.638Z,13.87
2022-07-27T00:28:59.882Z,12.43
2022-07-27T00:32:12.318Z,12.03
2022-07-27T00:35:19.395Z,12.67
2022-07-27T00:38:25.408Z,12.57
2022-07-27T00:41:34.451Z,12.60
2022-07-27T00:44:39.812Z,13.37
2022-07-27T00:47:46.280Z,13.87
2022-07-27T00:50:52.005Z,13.93
2022-07-27T00:53:58.913Z,14.20
2022-07-27T00:57:07.462Z,13.70
2022-07-27T01:00:14.317Z,15.03
2022-07-27T01:03:19.672Z,15.07
2022-07-27T01:06:29.599Z,16.13
2022-07-27T01:09:51.709Z,15.00
2022-07-27T01:13:00.906Z,15.63
2022-07-27T01:16:09.056Z,14.30
2022-07-27T01:19:18.087Z,15.33
2022-07-27T01:22:26.281Z,16.37
2022-07-27T01:25:32.506Z,15.97
2022-07-27T01:28:37.843Z,15.57
2022-07-27T01:31:44.779Z,13.97
2022-07-27T01:34:50.415Z,15.13
2022-07-27T01:38:01.067Z,15.97
2022-07-27T01:41:07.348Z,14.33
2022-07-27T01:44:13.570Z,14.57
2022-07-27T01:47:19.766Z,14.63
2022-07-27T01:50:25.181Z,14.30
2022-07-27T01:53:34.485Z,14.47
2022-07-27T01:56:39.875Z,14.30
2022-07-27T01:59:46.346Z,13.47
2022-07-27T02:02:51.974Z,14.80
2022-07-27T02:05:58.426Z,14.37
2022-07-27T02:09:06.816Z,13.27
2022-07-27T02:12:28.783Z,14.20
2022-07-27T02:15:42.997Z,13.73
2022-07-27T02:18:51.060Z,14.37
2022-07-27T02:21:56.668Z,15.17
2022-07-27T02:25:06.460Z,14.57
2022-07-27T02:28:12.616Z,14.43
2022-07-27T02:31:19.058Z,14.90
2022-07-27T02:34:24.377Z,15.37
2022-07-27T02:37:30.873Z,15.50
2022-07-27T02:40:39.470Z,15.73
2022-07-27T02:43:45.663Z,16.17
2022-07-27T02:46:51.301Z,14.93
2022-07-27T02:49:57.741Z,15.47
2022-07-27T02:53:03.375Z,14.83
2022-07-27T02:56:12.520Z,15.97
2022-07-27T02:59:18.293Z,15.10
2022-07-27T03:02:24.529Z,14.43
2022-07-27T03:05:30.172Z,14.87
2022-07-27T03:08:36.526Z,15.57
2022-07-27T03:11:45.010Z,15.10
2022-07-27T03:14:51.311Z,16.27
2022-07-27T03:17:57.209Z,16.30
2022-07-27T03:21:04.127Z,16.27
2022-07-27T03:24:10.174Z,15.90
2022-07-27T03:27:19.282Z,17.33
2022-07-27T03:30:24.696Z,16.60
2022-07-27T03:33:30.997Z,16.50
2022-07-27T03:36:36.523Z,16.53
2022-07-27T03:39:43.026Z,14.03
2022-07-27T03:42:51.610Z,14.43
2022-07-27T03:45:57.903Z,14.30
2022-07-27T03:49:03.467Z,13.33
2022-07-27T03:52:21.255Z,13.03
2022-07-27T03:55:27.886Z,13.43
2022-07-27T03:58:37.908Z,12.60
2022-07-27T04:01:43.373Z,11.63
2022-07-27T04:04:49.904Z,10.90
2022-07-27T04:07:55.866Z,11.27
2022-07-27T04:11:03.080Z,9.97
2022-07-27T04:14:12.722Z,10.53
2022-07-27T04:17:54.169Z,9.40
2022-07-27T04:20:45.074Z,8.97
2022-07-27T04:23:51.540Z,9.00
2022-07-27T04:26:57.212Z,8.70
2022-07-27T04:30:09.722Z,8.43
2022-07-27T04:33:15.591Z,8.33
2022-07-27T04:36:21.990Z,7.97
2022-07-27T04:39:27.478Z,7.60
2022-07-27T04:42:33.822Z,8.63
2022-07-27T04:45:42.076Z,8.17
2022-07-27T04:48:49.062Z,8.23
2022-07-27T04:51:57.596Z,7.87
2022-07-27T04:55:03.816Z,8.40
2022-07-27T04:58:10.848Z,7.97
2022-07-27T05:01:19.972Z,7.37
2022-07-27T05:04:25.474Z,8.07
2022-07-27T05:07:32.075Z,7.47
2022-07-27T05:10:37.755Z,7.00
2022-07-27T05:13:44.753Z,7.73
2022-07-27T05:16:53.090Z,6.60
2022-07-27T05:19:59.420Z,7.40
2022-07-27T05:23:06.090Z,6.70
2022-07-27T05:26:12.543Z,6.50
2022-07-27T05:29:17.936Z,7.20
2022-07-27T05:32:27.128Z,6.57
2022-07-27T05:35:32.624Z,6.80
2022-07-27T05:38:41.274Z,6.40
2022-07-27T05:41:46.698Z,7.00
2022-07-27T05:44:58.049Z,6.30
2022-07-27T05:48:06.568Z,6.50
2022-07-27T05:51:12.812Z,6.07
2022-07-27T05:54:19.100Z,5.37
2022-07-27T05:57:25.368Z,5.73
2022-07-27T06:00:32.729Z,7.00
2022-07-27T06:03:43.257Z,6.17
2022-07-27T06:07:04.569Z,6.43
2022-07-27T06:10:11.827Z,6.77
2022-07-27T06:13:17.298Z,7.33
2022-07-27T06:16:23.635Z,6.90
2022-07-27T06:19:36.379Z,6.37
2022-07-27T06:22:50.631Z,6.73
2022-07-27T06:25:56.041Z,6.73
2022-07-27T06:29:09.962Z,6.20
2022-07-27T06:32:16.833Z,6.23
2022-07-27T06:36:33.939Z,5.90
2022-07-27T06:39:42.445Z,5.43
2022-07-27T06:47:33.743Z,6.00
2022-07-27T06:50:39.984Z,5.10
2022-07-27T06:53:46.184Z,5.70
2022-07-27T06:56:55.477Z,5.67
2022-07-27T07:00:00.981Z,5.30
2022-07-27T07:03:09.323Z,5.43
2022-07-27T07:06:15.098Z,5.07
2022-07-27T07:09:22.375Z,5.43
2022-07-27T07:12:32.465Z,5.00
2022-07-27T07:15:40.708Z,5.37
2022-07-27T07:18:51.795Z,4.57
2022-07-27T07:21:58.776Z,4.70
2022-07-27T07:25:04.234Z,4.67
2022-07-27T07:28:13.483Z,4.57
2022-07-27T07:31:20.622Z,4.80
2022-07-27T07:34:27.566Z,4.67
2022-07-27T07:37:33.828Z,4.70
2022-07-27T07:40:43.851Z,4.90
2022-07-27T07:43:53.565Z,4.80
2022-07-27T07:47:00.196Z,4.60
2022-07-27T07:50:09.966Z,4.63
2022-07-27T07:53:17.947Z,4.17
2022-07-27T07:56:23.659Z,4.55
2022-07-27T07:59:32.734Z,4.60
2022-07-27T08:02:46.531Z,4.75
2022-07-27T08:05:52.788Z,4.75
2022-07-27T08:08:58.679Z,6.50
2022-07-27T08:12:05.568Z,6.28
2022-07-27T08:15:15.087Z,6.13
2022-07-27T08:18:22.029Z,6.85
2022-07-27T08:21:29.135Z,7.28
2022-07-27T08:24:44.762Z,7.03
2022-07-27T08:27:50.133Z,6.50
2022-07-27T08:30:59.593Z,6.25
2022-07-27T08:34:06.170Z,7.38
2022-07-27T08:37:15.537Z,6.05
2022-07-27T08:40:41.388Z,5.88
2022-07-27T08:43:52.070Z,6.90
2022-07-27T08:47:01.133Z,11.50
2022-07-27T08:50:23.437Z,10.70
2022-07-27T08:53:52.181Z,11.40
2022-07-27T08:57:00.271Z,11.25
2022-07-27T09:00:08.023Z,11.88
2022-07-27T09:03:20.725Z,11.63
2022-07-27T09:06:43.848Z,10.30
2022-07-27T09:09:50.573Z,10.60
2022-07-27T09:12:56.042Z,10.27
2022-07-27T09:16:20.899Z,11.45
2022-07-27T09:19:29.287Z,12.48
2022-07-27T09:22:51.120Z,11.93
2022-07-27T09:26:29.608Z,11.30
2022-07-27T09:29:38.550Z,11.45
2022-07-27T09:32:55.644Z,11.35
2022-07-27T09:36:06.816Z,10.77
2022-07-27T09:39:12.262Z,12.02
2022-07-27T09:42:59.225Z,11.70
2022-07-27T09:45:51.473Z,11.10
2022-07-27T09:48:58.547Z,10.95
2022-07-27T09:52:07.395Z,11.93
2022-07-27T09:55:14.496Z,10.73
2022-07-27T09:58:20.023Z,11.38
2022-07-27T10:01:28.106Z,10.15
2022-07-27T10:04:36.821Z,10.48
2022-07-27T10:07:46.018Z,10.93
2022-07-27T10:10:52.077Z,10.77
2022-07-27T10:14:00.476Z,9.75
2022-07-27T10:17:12.953Z,11.00
2022-07-27T10:20:21.741Z,10.63
2022-07-27T10:23:35.973Z,10.70
2022-07-27T10:26:44.040Z,9.98
2022-07-27T10:29:50.880Z,9.60
2022-07-27T10:32:57.312Z,9.05
2022-07-27T10:36:04.437Z,8.90
2022-07-27T10:39:13.581Z,8.73
2022-07-27T10:42:35.493Z,9.02
2022-07-27T10:45:59.978Z,9.93
2022-07-27T10:49:21.729Z,8.38
2022-07-27T10:52:45.306Z,10.25
2022-07-27T11:00:17.807Z,7.53
2022-07-27T11:03:24.027Z,7.50
2022-07-27T11:06:48.134Z,7.95
2022-07-27T11:10:05.227Z,9.25
2022-07-27T11:13:10.938Z,8.40
2022-07-27T11:16:28.520Z,8.65
2022-07-27T11:19:33.997Z,7.07
2022-07-27T11:26:07.395Z,7.82
2022-07-27T11:29:16.047Z,6.82
2022-07-27T11:32:25.232Z,8.25
2022-07-27T11:35:31.472Z,8.15
2022-07-27T11:38:48.853Z,7.28
2022-07-27T11:42:11.883Z,6.63
2022-07-27T11:45:31.787Z,7.40
2022-07-27T11:49:05.087Z,7.32
2022-07-27T11:52:09.678Z,7.30
2022-07-27T11:55:15.968Z,7.47
2022-07-27T11:58:21.267Z,7.20
2022-07-27T12:01:32.443Z,7.15
2022-07-27T12:04:42.148Z,6.07
2022-07-27T12:07:48.474Z,6.43
2022-07-27T12:11:01.190Z,6.80
2022-07-27T12:14:15.219Z,6.00
2022-07-27T12:17:31.848Z,5.47
2022-07-27T12:20:40.927Z,5.40
2022-07-27T12:23:52.898Z,5.22
2022-07-27T12:27:07.341Z,6.43
2022-07-27T12:30:15.694Z,5.90
2022-07-27T12:33:30.039Z,5.18
2022-07-27T12:36:44.575Z,5.65
2022-07-27T12:39:53.397Z,5.10
2022-07-27T12:43:00.762Z,6.97
2022-07-27T12:46:15.848Z,4.75
2022-07-27T12:49:21.332Z,5.20
2022-07-27T12:52:30.665Z,5.32
2022-07-27T12:55:36.252Z,4.95
2022-07-27T12:58:42.584Z,5.25
2022-07-27T13:01:48.276Z,5.95
2022-07-27T13:04:55.161Z,4.90
2022-07-27T13:08:03.586Z,4.75
2022-07-27T13:11:10.112Z,4.32
2022-07-27T13:14:19.412Z,3.90
2022-07-27T13:17:25.827Z,4.45
2022-07-27T13:20:31.428Z,4.18
2022-07-27T13:23:40.583Z,4.60
2022-07-27T13:26:45.943Z,4.53
2022-07-27T13:29:52.154Z,4.60
2022-07-27T13:32:57.796Z,3.97
2022-07-27T13:36:05.355Z,4.65
2022-07-27T13:39:15.567Z,3.70
2022-07-27T13:42:22.032Z,4.28
2022-07-27T13:45:28.309Z,4.22
2022-07-27T13:48:48.511Z,4.80
2022-07-27T13:51:54.001Z,3.97
2022-07-27T13:55:03.088Z,3.83
2022-07-27T13:58:14.133Z,3.85
2022-07-27T14:01:20.400Z,3.75
2022-07-27T14:04:28.556Z,4.43
2022-07-27T14:07:35.055Z,4.40
2022-07-27T14:10:48.347Z,4.50
2022-07-27T14:13:57.886Z,4.28
2022-07-27T14:17:03.375Z,3.97
2022-07-27T14:20:15.195Z,3.67
2022-07-27T14:23:20.598Z,3.55
2022-07-27T14:26:29.618Z,3.50
2022-07-27T14:29:34.976Z,3.40
2022-07-27T14:32:41.176Z,3.42
2022-07-27T14:35:47.437Z,3.55
2022-07-27T14:38:53.755Z,3.10
2022-07-27T14:42:03.621Z,2.97
2022-07-27T14:45:11.823Z,2.80
2022-07-27T14:48:25.293Z,3.08
2022-07-27T14:51:34.614Z,3.00
2022-07-27T14:54:39.968Z,2.50
2022-07-27T14:57:49.351Z,2.53
2022-07-27T15:00:55.666Z,2.45
2022-07-27T15:04:03.300Z,2.42
2022-07-27T15:07:09.062Z,2.28
2022-07-27T15:10:15.626Z,2.15
2022-07-27T15:13:23.854Z,2.55
2022-07-27T15:16:31.346Z,2.20
2022-07-27T15:19:36.833Z,2.30
2022-07-27T15:22:43.394Z,2.30
2022-07-27T15:25:49.075Z,2.33
2022-07-27T15:28:58.364Z,1.95
2022-07-27T15:32:03.971Z,2.20
2022-07-27T15:35:10.837Z,1.90
2022-07-27T15:38:16.192Z,1.90
2022-07-27T15:41:22.475Z,2.00
2022-07-27T15:44:30.780Z,1.60
2022-07-27T15:47:37.594Z,1.73
2022-07-27T15:50:48.757Z,1.67
2022-07-27T15:53:56.145Z,2.05
2022-07-27T15:57:03.131Z,2.05
2022-07-27T16:00:14.052Z,1.80
2022-07-27T16:03:21.722Z,1.70
2022-07-27T16:06:28.079Z,2.00
2022-07-27T16:09:33.525Z,1.60
2022-07-27T16:12:39.924Z,1.55
2022-07-27T16:16:18.632Z,1.80
2022-07-27T16:19:24.922Z,1.80
2022-07-27T16:22:32.137Z,1.73
2022-07-27T16:26:02.019Z,1.70
2022-07-27T16:29:03.944Z,1.70
2022-07-27T16:32:13.274Z,1.90
2022-07-27T16:35:18.634Z,2.00
2022-07-27T16:38:25.836Z,2.05
2022-07-27T16:41:31.301Z,1.73
2022-07-27T16:44:39.945Z,2.17
2022-07-27T16:47:48.282Z,1.75
2022-07-27T16:50:54.548Z,1.95
2022-07-27T16:54:00.016Z,2.08
2022-07-27T16:57:08.195Z,2.10
2022-07-27T17:00:14.477Z,2.03
2022-07-27T17:03:24.619Z,2.03
2022-07-27T17:06:32.038Z,1.88
2022-07-27T17:09:38.300Z,2.13
2022-07-27T17:12:43.932Z,2.00
2022-07-27T17:15:55.024Z,2.47
2022-07-27T17:19:03.232Z,2.10
2022-07-27T17:22:09.743Z,2.10
2022-07-27T17:25:15.221Z,2.20
2022-07-27T17:28:21.469Z,2.00
2022-07-27T17:31:26.943Z,2.35
2022-07-27T17:34:36.005Z,2.13
2022-07-27T17:38:04.445Z,2.10
2022-07-27T17:41:08.000Z,1.95
2022-07-27T17:44:13.378Z,2.40
2022-07-27T17:47:19.646Z,2.42
2022-07-27T17:50:27.909Z,2.17
2022-07-27T17:53:34.194Z,2.40
2022-07-27T17:56:39.636Z,2.60
2022-07-27T17:59:46.623Z,2.40
2022-07-27T18:02:52.625Z,2.73
2022-07-27T18:06:03.393Z,2.30
2022-07-27T18:09:09.208Z,2.57
2022-07-27T18:12:21.591Z,2.57
2022-07-27T18:15:42.832Z,2.70
2022-07-27T18:18:49.071Z,2.73
2022-07-27T18:21:57.537Z,2.53
2022-07-27T18:25:03.789Z,2.73
2022-07-27T18:28:09.205Z,2.70
2022-07-27T18:31:18.331Z,2.90
2022-07-27T18:34:23.757Z,3.03
2022-07-27T18:37:32.840Z,2.80
2022-07-27T18:40:38.316Z,3.13
2022-07-27T18:43:51.177Z,2.87
2022-07-27T18:46:56.631Z,2.80
2022-07-27T18:50:03.223Z,2.77
2022-07-27T18:53:12.065Z,2.90
2022-07-27T18:56:18.497Z,2.30
2022-07-27T18:59:24.004Z,2.80
2022-07-27T19:02:35.835Z,2.63
2022-07-27T19:05:45.048Z,2.47
2022-07-27T19:08:54.953Z,2.67
2022-07-27T19:12:01.835Z,2.50
2022-07-27T19:15:11.160Z,3.00
2022-07-27T19:18:16.551Z,3.20
2022-07-27T19:21:23.249Z,2.80
2022-07-27T19:24:32.022Z,2.77
2022-07-27T19:27:38.536Z,3.57
2022-07-27T19:30:44.332Z,3.03
2022-07-27T19:33:51.267Z,3.03
2022-07-27T19:36:57.127Z,2.77
2022-07-27T19:40:33.727Z,2.77
2022-07-27T19:43:33.768Z,3.07
2022-07-27T19:46:41.347Z,2.90
2022-07-27T19:49:46.759Z,3.47
2022-07-27T19:52:53.285Z,3.53
2022-07-27T19:56:03.045Z,3.60
2022-07-27T19:59:10.002Z,3.30
2022-07-27T20:02:16.910Z,3.70
2022-07-27T20:05:23.292Z,3.30
2022-07-27T20:08:29.803Z,4.00
2022-07-27T20:11:39.323Z,4.80
2022-07-27T20:14:44.758Z,6.10
2022-07-27T20:17:51.166Z,4.33
2022-07-27T20:20:57.141Z,3.70
2022-07-27T20:24:04.606Z,3.60
2022-07-27T20:27:13.245Z,3.10
2022-07-27T20:30:21.231Z,3.10
2022-07-27T20:33:31.070Z,3.10
2022-07-27T20:36:38.984Z,3.50
2022-07-27T20:39:44.663Z,2.80
2022-07-27T20:42:53.690Z,2.93
2022-07-27T20:45:59.510Z,2.70
2022-07-27T20:49:08.222Z,2.50
2022-07-27T20:52:13.642Z,2.30
2022-07-27T20:55:19.928Z,2.80
2022-07-27T20:58:28.084Z,2.50
2022-07-27T21:01:34.447Z,2.53
2022-07-27T21:04:40.224Z,2.47
2022-07-27T21:07:46.860Z,2.20
2022-07-27T21:10:52.535Z,2.10
2022-07-27T21:14:03.040Z,2.23
2022-07-27T21:17:08.417Z,2.30
2022-07-27T21:20:15.779Z,2.00
2022-07-27T21:23:37.082Z,2.50
2022-07-27T21:26:43.417Z,2.10
2022-07-27T21:29:52.087Z,2.33
2022-07-27T21:32:58.341Z,2.40
2022-07-27T21:36:04.070Z,2.17
2022-07-27T21:39:10.692Z,2.33
2022-07-27T21:42:17.282Z,2.10
2022-07-27T21:45:26.802Z,2.50
2022-07-27T21:48:32.442Z,2.30
2022-07-27T21:51:39.288Z,1.90
2022-07-27T21:54:44.958Z,2.17
2022-07-27T21:57:51.497Z,2.07
2022-07-27T22:01:00.044Z,1.90
2022-07-27T22:04:08.665Z,2.30
2022-07-27T22:07:19.399Z,2.00
2022-07-27T22:10:25.955Z,2.20
2022-07-27T22:13:31.684Z,1.87
2022-07-27T22:16:41.408Z,2.30
2022-07-27T22:19:47.017Z,2.30
2022-07-27T22:22:53.954Z,2.00
2022-07-27T22:25:59.862Z,1.90
2022-07-27T22:29:08.560Z,2.00
2022-07-27T22:32:16.818Z,2.00
2022-07-27T22:35:23.122Z,2.10
2022-07-27T22:38:28.501Z,2.33
2022-07-27T22:41:34.749Z,1.70
2022-07-27T22:44:42.647Z,2.30
2022-07-27T22:47:51.766Z,2.00
2022-07-27T22:50:57.267Z,2.17
2022-07-27T22:54:03.765Z,2.07
2022-07-27T22:57:09.907Z,2.10
2022-07-27T23:00:18.781Z,2.53
2022-07-27T23:03:27.288Z,2.17
2022-07-27T23:06:33.548Z,2.80
2022-07-27T23:09:38.931Z,2.90
2022-07-27T23:12:45.432Z,2.60
2022-07-27T23:15:51.116Z,2.57
2022-07-27T23:19:00.188Z,2.30
2022-07-27T23:22:07.322Z,2.47
2022-07-27T23:25:17.918Z,2.23
2022-07-27T23:28:27.400Z,2.20
2022-07-27T23:31:33.803Z,2.83
2022-07-27T23:34:42.311Z,2.27
2022-07-27T23:37:48.531Z,2.10
2022-07-27T23:40:54.329Z,2.17
2022-07-27T23:44:00.715Z,1.77
2022-07-27T23:47:07.545Z,2.07
2022-07-27T23:50:18.053Z,2.30
2022-07-27T23:53:24.118Z,2.00
2022-07-27T23:56:30.592Z,1.63
2022-07-27T23:59:35.956Z,2.47
